createdAt,value
2023-03-02T00:00:16.259Z,-4.74
2023-03-02T00:02:23.469Z,-4.76
2023-03-02T00:04:23.368Z,-4.72
2023-03-02T00:06:14.967Z,-4.66
2023-03-02T00:08:07.991Z,-4.62
2023-03-02T00:09:59.616Z,-4.61
2023-03-02T00:11:51.721Z,-4.64
2023-03-02T00:13:44.309Z,-4.71
2023-03-02T00:15:36.070Z,-4.78
2023-03-02T00:17:28.123Z,-4.83
2023-03-02T00:19:19.550Z,-4.88
2023-03-02T00:21:11.491Z,-4.90
2023-03-02T00:23:03.608Z,-4.90
2023-03-02T00:24:55.355Z,-4.88
2023-03-02T00:26:47.146Z,-4.89
2023-03-02T00:28:38.912Z,-4.92
2023-03-02T00:30:30.531Z,-4.97
2023-03-02T00:32:22.097Z,-5.06
2023-03-02T00:34:13.911Z,-5.12
2023-03-02T00:36:06.168Z,-5.15
2023-03-02T00:37:57.980Z,-5.18
2023-03-02T00:39:52.124Z,-5.23
2023-03-02T00:41:43.855Z,-5.28
2023-03-02T00:43:35.464Z,-5.31
2023-03-02T00:45:27.183Z,-5.35
2023-03-02T00:47:19.189Z,-5.39
2023-03-02T00:49:12.110Z,-5.40
2023-03-02T00:51:04.539Z,-5.41
2023-03-02T00:52:55.868Z,-5.41
2023-03-02T00:54:47.711Z,-5.42
2023-03-02T00:56:39.744Z,-5.43
2023-03-02T00:58:32.291Z,-5.43
2023-03-02T01:00:24.753Z,-5.44
2023-03-02T01:02:16.410Z,-5.45
2023-03-02T01:04:07.821Z,-5.49
2023-03-02T01:06:00.863Z,-5.54
2023-03-02T01:07:52.515Z,-5.58
2023-03-02T01:09:45.653Z,-5.62
2023-03-02T01:11:37.431Z,-5.64
2023-03-02T01:13:29.258Z,-5.66
2023-03-02T01:15:20.686Z,-5.69
2023-03-02T01:17:13.252Z,-5.72
2023-03-02T01:19:05.037Z,-5.74
2023-03-02T01:21:05.417Z,-5.74
2023-03-02T01:22:57.336Z,-5.75
2023-03-02T01:24:49.830Z,-5.74
2023-03-02T01:26:41.760Z,-5.74
2023-03-02T01:28:33.620Z,-5.71
2023-03-02T01:30:25.450Z,-5.71
2023-03-02T01:32:16.962Z,-5.71
2023-03-02T01:34:09.011Z,-5.69
2023-03-02T01:36:00.613Z,-5.67
2023-03-02T01:37:52.456Z,-5.63
2023-03-02T01:39:44.378Z,-5.61
2023-03-02T01:41:36.203Z,-5.54
2023-03-02T01:43:29.507Z,-5.43
2023-03-02T01:45:44.366Z,-5.33
2023-03-02T01:47:39.040Z,-5.28
2023-03-02T01:49:32.851Z,-5.24
2023-03-02T01:51:26.499Z,-5.20
2023-03-02T01:53:18.353Z,-5.16
2023-03-02T01:55:12.491Z,-5.13
2023-03-02T01:57:06.888Z,-5.11
2023-03-02T01:59:02.923Z,-5.10
2023-03-02T02:00:55.128Z,-5.11
2023-03-02T02:02:47.875Z,-5.19
2023-03-02T02:04:42.412Z,-5.28
2023-03-02T02:06:44.928Z,-5.34
2023-03-02T02:08:37.725Z,-5.37
2023-03-02T02:10:29.362Z,-5.40
2023-03-02T02:12:25.071Z,-5.42
2023-03-02T02:14:16.459Z,-5.45
2023-03-02T02:16:08.541Z,-5.47
2023-03-02T02:18:00.791Z,-5.55
2023-03-02T02:19:56.727Z,-5.63
2023-03-02T02:21:48.393Z,-5.69
2023-03-02T02:23:46.360Z,-5.72
2023-03-02T02:25:43.865Z,-5.73
2023-03-02T02:27:36.280Z,-5.75
2023-03-02T02:39:34.131Z,-5.88
2023-03-02T02:41:28.777Z,-5.93
2023-03-02T02:43:22.275Z,-5.95
2023-03-02T02:45:25.835Z,-5.96
2023-03-02T02:47:20.767Z,-5.98
2023-03-02T02:49:29.555Z,-5.98
2023-03-02T02:51:27.100Z,-5.96
2023-03-02T02:53:22.647Z,-5.93
2023-03-02T02:55:16.702Z,-5.89
2023-03-02T02:57:09.704Z,-5.85
2023-03-02T02:59:05.553Z,-5.85
2023-03-02T03:01:01.253Z,-5.82
2023-03-02T03:03:06.943Z,-5.75
2023-03-02T03:05:05.157Z,-5.72
2023-03-02T03:07:02.717Z,-5.70
2023-03-02T03:08:58.042Z,-5.69
2023-03-02T03:10:49.910Z,-5.70
2023-03-02T03:12:42.718Z,-5.75
2023-03-02T03:14:37.273Z,-5.76
2023-03-02T03:16:31.310Z,-5.80
2023-03-02T03:18:24.425Z,-5.79
2023-03-02T03:20:16.863Z,-5.79
2023-03-02T03:22:13.085Z,-5.77
2023-03-02T03:24:05.406Z,-5.74
2023-03-02T03:25:57.693Z,-5.72
2023-03-02T03:27:48.999Z,-5.71
2023-03-02T03:29:44.052Z,-5.72
2023-03-02T03:31:35.940Z,-5.73
2023-03-02T03:33:27.912Z,-5.76
2023-03-02T03:35:19.293Z,-5.78
2023-03-02T03:37:14.271Z,-5.82
2023-03-02T03:39:06.163Z,-5.88
2023-03-02T03:40:57.888Z,-5.94
2023-03-02T03:42:49.485Z,-5.97
2023-03-02T03:44:41.182Z,-6.02
2023-03-02T03:46:33.879Z,-6.06
2023-03-02T03:48:25.998Z,-6.08
2023-03-02T03:50:17.654Z,-6.15
2023-03-02T03:52:09.581Z,-6.20
2023-03-02T03:54:05.939Z,-6.25
2023-03-02T03:55:57.537Z,-6.28
2023-03-02T03:57:49.457Z,-6.31
2023-03-02T03:59:41.054Z,-6.35
2023-03-02T04:01:56.624Z,-6.35
2023-03-02T04:03:48.391Z,-6.36
2023-03-02T04:05:40.189Z,-6.36
2023-03-02T04:07:33.167Z,-6.36
2023-03-02T04:09:24.954Z,-6.35
2023-03-02T04:11:16.845Z,-6.35
2023-03-02T04:13:08.716Z,-6.34
2023-03-02T04:15:00.235Z,-6.34
2023-03-02T04:16:52.860Z,-6.32
2023-03-02T04:18:44.537Z,-6.27
2023-03-02T04:20:36.665Z,-6.21
2023-03-02T04:22:28.480Z,-6.19
2023-03-02T04:24:22.026Z,-6.15
2023-03-02T04:26:13.927Z,-6.07
2023-03-02T04:28:05.932Z,-5.97
2023-03-02T04:29:57.738Z,-5.92
2023-03-02T04:31:49.754Z,-5.87
2023-03-02T04:33:41.603Z,-5.86
2023-03-02T04:35:33.698Z,-5.81
2023-03-02T04:37:25.364Z,-5.77
2023-03-02T04:39:18.666Z,-5.73
2023-03-02T04:41:10.324Z,-5.73
2023-03-02T04:43:02.040Z,-5.70
2023-03-02T04:44:53.819Z,-5.70
2023-03-02T04:46:46.855Z,-5.69
2023-03-02T04:48:38.422Z,-5.74
2023-03-02T04:50:30.465Z,-5.78
2023-03-02T04:52:22.119Z,-5.87
2023-03-02T04:54:20.692Z,-5.93
2023-03-02T04:56:12.783Z,-5.94
2023-03-02T04:58:05.381Z,-5.96
2023-03-02T04:59:56.834Z,-5.98
2023-03-02T05:01:48.935Z,-6.02
2023-03-02T05:03:40.845Z,-6.05
2023-03-02T05:05:32.901Z,-6.13
2023-03-02T05:07:24.357Z,-6.19
2023-03-02T05:09:15.825Z,-6.22
2023-03-02T05:11:08.138Z,-6.27
2023-03-02T05:13:05.233Z,-6.33
2023-03-02T05:14:56.729Z,-6.40
2023-03-02T05:16:48.552Z,-6.43
2023-03-02T05:18:40.452Z,-6.43
2023-03-02T05:20:32.440Z,-6.44
2023-03-02T05:22:24.292Z,-6.50
2023-03-02T05:24:16.643Z,-6.52
2023-03-02T05:26:09.035Z,-6.55
2023-03-02T05:28:01.230Z,-6.55
2023-03-02T05:29:53.216Z,-6.54
2023-03-02T05:31:45.833Z,-6.55
2023-03-02T05:33:37.530Z,-6.57
2023-03-02T05:35:29.550Z,-6.55
2023-03-02T05:37:21.295Z,-6.54
2023-03-02T05:39:13.306Z,-6.51
2023-03-02T05:41:05.424Z,-6.49
2023-03-02T05:42:57.777Z,-6.44
2023-03-02T05:44:49.314Z,-6.43
2023-03-02T05:46:41.684Z,-6.40
2023-03-02T05:48:33.325Z,-6.32
2023-03-02T05:50:24.533Z,-6.21
2023-03-02T05:52:16.232Z,-6.10
2023-03-02T05:54:07.529Z,-6.00
2023-03-02T05:55:59.175Z,-5.91
2023-03-02T05:57:50.590Z,-5.81
2023-03-02T05:59:42.316Z,-5.70
2023-03-02T06:01:35.578Z,-5.57
2023-03-02T06:03:27.293Z,-5.46
2023-03-02T06:05:19.836Z,-5.31
2023-03-02T06:07:11.684Z,-5.19
2023-03-02T06:09:03.521Z,-5.07
2023-03-02T06:10:56.422Z,-4.93
2023-03-02T06:12:47.826Z,-4.83
2023-03-02T06:14:39.534Z,-4.77
2023-03-02T06:16:32.048Z,-4.64
2023-03-02T06:18:23.582Z,-4.53
2023-03-02T06:20:15.515Z,-4.45
2023-03-02T06:22:07.204Z,-4.35
2023-03-02T06:23:58.861Z,-4.26
2023-03-02T06:25:50.615Z,-4.18
2023-03-02T06:27:42.983Z,-4.15
2023-03-02T06:29:34.349Z,-4.13
2023-03-02T06:31:25.795Z,-4.08
2023-03-02T06:33:18.220Z,-4.03
2023-03-02T06:35:10.726Z,-3.94
2023-03-02T06:37:02.105Z,-3.85
2023-03-02T06:38:53.467Z,-3.76
2023-03-02T06:40:45.037Z,-3.68
2023-03-02T06:42:36.925Z,-3.59
2023-03-02T06:44:28.531Z,-3.50
2023-03-02T06:46:20.015Z,-3.37
2023-03-02T06:48:11.505Z,-3.24
2023-03-02T06:50:04.030Z,-3.11
2023-03-02T06:51:55.383Z,-2.95
2023-03-02T06:53:46.578Z,-2.79
2023-03-02T06:55:38.189Z,-2.69
2023-03-02T06:57:33.974Z,-2.59
2023-03-02T06:59:25.784Z,-2.47
2023-03-02T07:01:17.483Z,-2.31
2023-03-02T07:03:09.214Z,-2.11
2023-03-02T07:05:00.828Z,-1.88
2023-03-02T07:06:52.133Z,-1.64
2023-03-02T07:08:43.688Z,-1.39
2023-03-02T07:10:34.916Z,-1.19
2023-03-02T07:12:26.411Z,-0.99
2023-03-02T07:14:18.099Z,-0.76
2023-03-02T07:16:12.022Z,-0.51
2023-03-02T07:18:03.503Z,-0.31
2023-03-02T07:19:54.703Z,-0.10
2023-03-02T07:21:46.274Z,0.09
2023-03-02T07:23:37.558Z,0.30
2023-03-02T07:25:29.165Z,0.52
2023-03-02T07:27:20.297Z,0.78
2023-03-02T07:29:11.379Z,1.01
2023-03-02T07:31:03.020Z,1.24
2023-03-02T07:32:54.797Z,1.41
2023-03-02T07:34:46.301Z,1.62
2023-03-02T07:36:37.683Z,1.83
2023-03-02T07:38:29.161Z,1.96
2023-03-02T07:40:20.815Z,2.15
2023-03-02T07:42:12.921Z,2.32
2023-03-02T07:44:04.472Z,2.48
2023-03-02T07:45:59.699Z,2.66
2023-03-02T07:47:51.554Z,2.89
2023-03-02T07:49:43.094Z,3.14
2023-03-02T07:51:34.576Z,3.39
2023-03-02T07:53:26.346Z,3.61
2023-03-02T07:55:18.257Z,3.86
2023-03-02T07:57:09.651Z,4.08
2023-03-02T07:59:01.300Z,4.28
2023-03-02T08:00:53.197Z,4.49
2023-03-02T08:02:44.844Z,4.69
2023-03-02T08:04:36.801Z,4.88
2023-03-02T08:06:28.640Z,5.09
2023-03-02T08:08:20.299Z,5.31
2023-03-02T08:10:12.097Z,5.49
2023-03-02T08:12:03.533Z,5.61
2023-03-02T08:13:55.297Z,5.82
2023-03-02T08:15:47.049Z,6.03
2023-03-02T08:17:38.795Z,6.21
2023-03-02T08:19:30.183Z,6.43
2023-03-02T08:21:23.710Z,6.63
2023-03-02T08:23:15.144Z,6.82
2023-03-02T08:25:07.452Z,6.99
2023-03-02T08:28:46.896Z,7.33
2023-03-02T08:30:38.977Z,7.50
2023-03-02T08:32:35.037Z,7.62
2023-03-02T08:34:27.049Z,7.72
2023-03-02T08:36:19.865Z,7.84
2023-03-02T08:40:01.387Z,8.03
2023-03-02T08:41:53.380Z,8.14
2023-03-02T08:43:45.130Z,8.33
2023-03-02T08:45:36.745Z,8.51
2023-03-02T08:47:28.586Z,8.68
2023-03-02T08:49:20.758Z,8.88
2023-03-02T08:51:23.075Z,9.08
2023-03-02T08:53:15.094Z,9.32
2023-03-02T08:55:07.491Z,9.51
2023-03-02T08:56:59.123Z,9.69
2023-03-02T08:58:51.758Z,9.83
2023-03-02T09:00:43.812Z,9.96
2023-03-02T09:02:35.362Z,10.06
2023-03-02T09:04:27.461Z,10.18
2023-03-02T09:06:19.606Z,10.26
2023-03-02T09:08:12.391Z,10.30
2023-03-02T09:10:04.611Z,10.42
2023-03-02T09:11:56.332Z,10.53
2023-03-02T09:13:48.307Z,10.55
2023-03-02T09:15:40.462Z,10.39
2023-03-02T09:17:32.300Z,10.39
2023-03-02T09:19:24.261Z,10.52
2023-03-02T09:21:16.497Z,10.72
2023-03-02T09:23:07.979Z,10.87
2023-03-02T09:25:00.039Z,11.00
2023-03-02T09:26:52.227Z,10.98
2023-03-02T09:28:43.963Z,10.99
2023-03-02T09:30:35.791Z,11.12
2023-03-02T09:32:27.432Z,11.15
2023-03-02T09:34:19.340Z,11.36
2023-03-02T09:36:12.180Z,11.51
2023-03-02T09:38:04.432Z,11.60
2023-03-02T09:39:56.242Z,11.72
2023-03-02T09:42:14.758Z,11.77
2023-03-02T09:44:15.569Z,11.75
2023-03-02T09:46:16.874Z,11.74
2023-03-02T09:48:28.422Z,11.77
2023-03-02T09:50:28.945Z,11.94
2023-03-02T09:52:29.774Z,12.01
2023-03-02T09:54:25.245Z,12.01
2023-03-02T09:56:18.331Z,12.01
2023-03-02T09:58:16.635Z,12.02
2023-03-02T10:00:21.843Z,12.21
2023-03-02T10:02:45.591Z,12.29
2023-03-02T10:04:59.553Z,12.40
2023-03-02T10:07:02.364Z,12.34
2023-03-02T10:08:55.092Z,12.28
2023-03-02T10:10:54.384Z,12.20
2023-03-02T10:12:45.781Z,12.11
2023-03-02T10:14:44.726Z,11.97
2023-03-02T10:16:48.690Z,11.94
2023-03-02T10:19:16.245Z,12.15
2023-03-02T10:21:30.122Z,12.39
2023-03-02T10:23:47.299Z,12.56
2023-03-02T10:25:51.175Z,12.76
2023-03-02T10:27:46.802Z,12.91
2023-03-02T10:29:56.231Z,12.89
2023-03-02T10:31:52.895Z,13.00
2023-03-02T10:33:44.831Z,13.05
2023-03-02T10:35:37.628Z,13.18
2023-03-02T10:37:30.500Z,13.30
2023-03-02T10:39:22.181Z,13.41
2023-03-02T10:41:21.108Z,13.53
2023-03-02T10:43:18.955Z,13.64
2023-03-02T10:45:23.265Z,13.66
2023-03-02T10:47:25.995Z,13.70
2023-03-02T10:49:26.643Z,13.70
2023-03-02T10:51:29.286Z,13.59
2023-03-02T10:53:21.239Z,13.60
2023-03-02T10:55:15.033Z,13.58
2023-03-02T10:57:24.911Z,13.40
2023-03-02T10:59:29.872Z,13.32
2023-03-02T11:01:21.489Z,13.13
2023-03-02T11:03:23.562Z,13.07
2023-03-02T11:05:34.816Z,13.11
2023-03-02T11:07:29.020Z,12.96
2023-03-02T11:09:20.945Z,12.76
2023-03-02T11:11:25.012Z,12.69
2023-03-02T11:13:26.732Z,12.67
2023-03-02T11:15:25.190Z,12.79
2023-03-02T11:17:33.240Z,12.96
2023-03-02T11:19:37.734Z,12.98
2023-03-02T11:21:38.417Z,12.95
2023-03-02T11:23:51.969Z,13.02
2023-03-02T11:25:57.603Z,13.06
2023-03-02T11:27:54.856Z,13.27
2023-03-02T11:29:57.261Z,13.37
2023-03-02T11:31:55.312Z,13.27
2023-03-02T11:34:19.451Z,13.37
2023-03-02T11:36:21.210Z,13.42
2023-03-02T11:38:21.875Z,13.35
2023-03-02T11:40:26.649Z,13.28
2023-03-02T11:42:26.108Z,13.40
2023-03-02T11:44:19.978Z,13.34
2023-03-02T11:46:23.785Z,13.27
2023-03-02T11:48:43.120Z,13.29
2023-03-02T11:50:40.737Z,13.12
2023-03-02T11:52:36.987Z,13.04
2023-03-02T11:54:36.831Z,13.00
2023-03-02T11:56:32.386Z,13.01
2023-03-02T11:58:26.062Z,13.05
2023-03-02T12:00:27.030Z,13.07
2023-03-02T12:02:18.985Z,13.20
2023-03-02T12:04:35.990Z,13.33
2023-03-02T12:06:35.506Z,13.42
2023-03-02T12:08:27.558Z,13.40
2023-03-02T12:10:31.749Z,13.47
2023-03-02T12:12:26.238Z,13.40
2023-03-02T12:14:47.505Z,13.28
2023-03-02T12:16:41.739Z,13.46
2023-03-02T12:18:42.834Z,13.64
2023-03-02T12:20:34.272Z,13.78
2023-03-02T12:22:31.620Z,13.77
2023-03-02T12:24:26.300Z,13.74
2023-03-02T12:26:20.713Z,13.83
2023-03-02T12:28:31.082Z,13.83
2023-03-02T12:30:26.805Z,13.91
2023-03-02T12:32:18.464Z,14.04
2023-03-02T12:34:28.315Z,14.17
2023-03-02T12:36:27.630Z,14.22
2023-03-02T12:38:34.034Z,14.10
2023-03-02T12:40:49.984Z,14.10
2023-03-02T12:43:09.996Z,14.09
2023-03-02T12:45:29.976Z,14.19
2023-03-02T12:47:27.588Z,14.30
2023-03-02T12:59:27.763Z,16.10
2023-03-02T13:01:25.098Z,15.66
2023-03-02T13:03:15.476Z,15.39
2023-03-02T13:05:07.978Z,15.15
2023-03-02T13:06:58.295Z,15.07
2023-03-02T13:08:50.588Z,14.92
2023-03-02T13:11:00.940Z,14.85
2023-03-02T13:12:51.228Z,14.80
2023-03-02T13:14:44.147Z,14.89
2023-03-02T13:16:36.209Z,14.93
2023-03-02T13:18:32.519Z,14.92
2023-03-02T13:20:25.975Z,14.81
2023-03-02T13:22:16.491Z,14.68
2023-03-02T13:24:27.955Z,14.59
2023-03-02T13:26:34.005Z,14.41
2023-03-02T13:28:30.470Z,14.37
2023-03-02T13:30:31.816Z,14.21
2023-03-02T13:32:38.612Z,14.18
2023-03-02T13:34:31.997Z,14.23
2023-03-02T13:36:42.614Z,14.22
2023-03-02T13:38:36.521Z,14.25
2023-03-02T13:40:26.997Z,14.26
2023-03-02T13:42:25.939Z,14.31
2023-03-02T13:44:22.539Z,14.33
2023-03-02T13:46:13.177Z,14.39
2023-03-02T13:48:16.823Z,14.40
2023-03-02T13:50:07.993Z,14.43
2023-03-02T13:52:05.499Z,14.46
2023-03-02T13:54:02.426Z,14.44
2023-03-02T13:55:53.789Z,14.32
2023-03-02T13:57:45.418Z,14.09
2023-03-02T13:59:36.046Z,13.99
2023-03-02T14:01:27.257Z,14.02
2023-03-02T14:03:27.536Z,14.06
2023-03-02T14:05:20.301Z,14.05
2023-03-02T14:07:10.605Z,14.04
2023-03-02T14:18:47.731Z,13.90
2023-03-02T14:20:39.772Z,13.80
2023-03-02T14:22:32.109Z,13.70
2023-03-02T14:24:24.154Z,13.50
2023-03-02T14:26:39.442Z,13.30
2023-03-02T14:28:31.939Z,13.11
2023-03-02T14:30:23.461Z,13.04
2023-03-02T14:32:15.786Z,13.05
2023-03-02T14:34:12.694Z,13.08
2023-03-02T20:07:07.745Z,1.24
2023-03-02T20:09:02.507Z,1.18
2023-03-02T20:10:54.189Z,1.05
2023-03-02T20:12:45.997Z,1.05
2023-03-02T20:14:40.709Z,1.00
2023-03-02T20:16:34.707Z,0.95
2023-03-02T20:18:26.432Z,0.89
2023-03-02T20:20:17.729Z,0.89
2023-03-02T20:22:10.787Z,0.87
2023-03-02T20:24:02.563Z,0.86
2023-03-02T20:25:54.353Z,0.82
2023-03-02T20:27:49.118Z,0.80
2023-03-02T20:29:43.322Z,0.74
2023-03-02T20:31:36.007Z,0.74
2023-03-02T20:33:33.259Z,0.75
2023-03-02T20:44:55.879Z,0.87
2023-03-02T20:46:51.035Z,0.90
2023-03-02T20:48:41.509Z,0.94
2023-03-02T20:50:35.723Z,0.97
2023-03-02T20:52:26.328Z,0.98
2023-03-02T20:54:16.742Z,1.03
2023-03-02T20:56:07.444Z,1.07
2023-03-02T20:57:58.020Z,1.11
2023-03-02T20:59:49.080Z,1.14
2023-03-02T21:01:39.530Z,1.18
2023-03-02T21:03:29.829Z,1.19
2023-03-02T21:05:20.489Z,1.21
2023-03-02T21:07:11.253Z,1.22
2023-03-02T21:09:03.833Z,1.21
2023-03-02T21:10:54.085Z,1.19
2023-03-02T21:12:45.166Z,1.17
2023-03-02T21:14:35.916Z,1.16
2023-03-02T21:16:30.233Z,1.13
2023-03-02T21:18:20.495Z,1.08
2023-03-02T21:20:11.613Z,1.02
2023-03-02T21:22:03.300Z,0.98
2023-03-02T21:23:54.282Z,0.94
2023-03-02T21:25:44.979Z,0.90
2023-03-02T21:27:36.598Z,0.86
2023-03-02T21:39:04.608Z,0.70
2023-03-02T21:40:54.832Z,0.65
2023-03-02T21:42:45.074Z,0.67
2023-03-02T21:44:35.766Z,0.66
2023-03-02T21:46:26.277Z,0.66
2023-03-02T21:48:17.012Z,0.68
2023-03-02T21:50:12.113Z,0.68
2023-03-02T22:01:25.924Z,1.00
2023-03-02T22:03:17.676Z,1.01
2023-03-02T22:07:18.388Z,1.08
2023-03-02T22:09:16.309Z,1.07
2023-03-02T22:11:23.983Z,1.02
2023-03-02T22:13:25.419Z,0.98
2023-03-02T22:15:15.597Z,0.94
2023-03-02T22:17:17.229Z,0.86
2023-03-02T22:19:26.603Z,0.85
2023-03-02T22:21:29.329Z,0.81
2023-03-02T22:23:25.571Z,0.76
2023-03-02T22:25:17.694Z,0.72
2023-03-02T22:27:19.758Z,0.71
2023-03-02T22:29:14.439Z,0.70
2023-03-02T22:31:05.035Z,0.72
2023-03-02T22:32:55.709Z,0.73
2023-03-02T22:44:43.008Z,0.82
2023-03-02T22:46:34.676Z,0.87
2023-03-02T22:48:28.800Z,0.89
2023-03-02T22:50:28.521Z,0.91
2023-03-02T22:52:23.886Z,0.93
2023-03-02T22:54:24.127Z,0.94
2023-03-02T22:56:35.307Z,0.95
2023-03-02T22:58:45.231Z,0.86
2023-03-02T23:00:40.736Z,0.70
2023-03-02T23:02:37.480Z,0.60
2023-03-02T23:04:36.140Z,0.51
2023-03-02T23:06:31.680Z,0.37
2023-03-02T23:08:23.253Z,0.31
2023-03-02T23:19:48.676Z,0.27
2023-03-02T23:21:45.157Z,0.25
2023-03-02T23:23:37.091Z,0.21
2023-03-02T23:25:29.063Z,0.20
2023-03-02T23:27:21.127Z,0.22
2023-03-02T23:29:13.408Z,0.24
2023-03-02T23:31:05.082Z,0.29
2023-03-02T23:32:56.585Z,0.33
2023-03-02T23:34:48.586Z,0.34
2023-03-02T23:36:40.430Z,0.37
2023-03-02T23:38:31.849Z,0.40
2023-03-02T23:40:23.680Z,0.39
2023-03-02T23:42:15.251Z,0.41
2023-03-02T23:44:07.681Z,0.43
2023-03-02T23:45:59.822Z,0.46
2023-03-02T23:47:51.154Z,0.47
2023-03-02T23:49:42.407Z,0.49
2023-03-02T23:51:34.293Z,0.51
2023-03-02T23:53:26.314Z,0.51
2023-03-02T23:55:18.671Z,0.51
2023-03-02T23:57:10.534Z,0.50
2023-03-02T23:59:02.581Z,0.51
